sensor_id;sensor_type;location;lat;lon;timestamp;pressure;altitude;pressure_sealevel;temperature;humidity
12486;BME280;6307;46.804;11.580;2023-02-13T00:00:00;-20981.41;;;4.31;94.00
12486;BME280;6307;46.804;11.580;2023-02-13T00:02:26;-20983.50;;;4.38;94.02
12486;BME280;6307;46.804;11.580;2023-02-13T00:04:52;-20993.75;;;4.72;89.99
12486;BME280;6307;46.804;11.580;2023-02-13T00:07:18;-20983.97;;;4.39;92.16
12486;BME280;6307;46.804;11.580;2023-02-13T00:09:44;-20990.28;;;4.60;91.17
12486;BME280;6307;46.804;11.580;2023-02-13T00:12:10;-20986.53;;;4.48;91.62
12486;BME280;6307;46.804;11.580;2023-02-13T00:14:38;-20994.06;;;4.73;88.53
12486;BME280;6307;46.804;11.580;2023-02-13T00:17:05;-20989.97;;;4.59;89.57
12486;BME280;6307;46.804;11.580;2023-02-13T00:19:31;-20983.50;;;4.38;93.04
12486;BME280;6307;46.804;11.580;2023-02-13T00:21:58;-20976.72;;;4.15;95.87
12486;BME280;6307;46.804;11.580;2023-02-13T00:24:24;-20979.59;;;4.25;95.14
12486;BME280;6307;46.804;11.580;2023-02-13T00:26:50;-20985.78;;;4.45;91.65
12486;BME280;6307;46.804;11.580;2023-02-13T00:29:16;-20988.31;;;4.54;91.96
12486;BME280;6307;46.804;11.580;2023-02-13T00:31:43;-20988.19;;;4.53;90.63
12486;BME280;6307;46.804;11.580;2023-02-13T00:34:09;-20985.16;;;4.43;92.39
12486;BME280;6307;46.804;11.580;2023-02-13T00:36:35;-20987.13;;;4.50;89.66
12486;BME280;6307;46.804;11.580;2023-02-13T00:39:01;-20981.69;;;4.32;88.94
12486;BME280;6307;46.804;11.580;2023-02-13T00:41:28;-20975.06;;;4.10;94.99
12486;BME280;6307;46.804;11.580;2023-02-13T00:43:54;-20964.38;;;3.74;99.09
12486;BME280;6307;46.804;11.580;2023-02-13T00:46:20;-20973.56;;;4.05;95.88
12486;BME280;6307;46.804;11.580;2023-02-13T00:48:46;-20977.63;;;4.18;92.84
12486;BME280;6307;46.804;11.580;2023-02-13T00:51:13;-20977.19;;;4.17;95.05
12486;BME280;6307;46.804;11.580;2023-02-13T00:53:39;-20981.25;;;4.30;90.66
12486;BME280;6307;46.804;11.580;2023-02-13T00:56:06;-20978.84;;;4.22;92.45
12486;BME280;6307;46.804;11.580;2023-02-13T00:58:32;-20971.16;;;3.97;94.35
12486;BME280;6307;46.804;11.580;2023-02-13T01:00:59;-20968.28;;;3.87;94.81
12486;BME280;6307;46.804;11.580;2023-02-13T01:03:25;-20965.28;;;3.77;95.64
12486;BME280;6307;46.804;11.580;2023-02-13T01:05:51;-20964.97;;;3.76;98.36
12486;BME280;6307;46.804;11.580;2023-02-13T01:08:19;-20964.69;;;3.75;97.92
12486;BME280;6307;46.804;11.580;2023-02-13T01:10:46;-20969.66;;;3.92;96.16
12486;BME280;6307;46.804;11.580;2023-02-13T01:13:14;-20968.75;;;3.89;95.97
12486;BME280;6307;46.804;11.580;2023-02-13T01:15:42;-20970.56;;;3.95;96.55
12486;BME280;6307;46.804;11.580;2023-02-13T01:18:13;-20965.88;;;3.79;98.63
12486;BME280;6307;46.804;11.580;2023-02-13T01:20:41;-20965.88;;;3.79;98.35
12486;BME280;6307;46.804;11.580;2023-02-13T01:23:11;-20966.63;;;3.82;97.79
12486;BME280;6307;46.804;11.580;2023-02-13T01:25:41;-20962.72;;;3.69;100.00
12486;BME280;6307;46.804;11.580;2023-02-13T01:28:08;-20970.72;;;3.95;95.85
12486;BME280;6307;46.804;11.580;2023-02-13T01:30:34;-20965.13;;;3.77;97.90
12486;BME280;6307;46.804;11.580;2023-02-13T01:33:00;-20964.81;;;3.76;99.30
12486;BME280;6307;46.804;11.580;2023-02-13T01:35:26;-20964.97;;;3.76;98.27
12486;BME280;6307;46.804;11.580;2023-02-13T01:37:53;-20964.06;;;3.73;100.00
12486;BME280;6307;46.804;11.580;2023-02-13T01:40:19;-20965.59;;;3.78;97.36
12486;BME280;6307;46.804;11.580;2023-02-13T01:42:45;-20961.81;;;3.66;96.96
12486;BME280;6307;46.804;11.580;2023-02-13T01:45:27;-20957.16;;;3.50;96.75
12486;BME280;6307;46.804;11.580;2023-02-13T01:48:16;-20949.91;;;3.26;100.00
12486;BME280;6307;46.804;11.580;2023-02-13T01:53:26;-20960.16;;;3.60;97.67
12486;BME280;6307;46.804;11.580;2023-02-13T01:56:12;-20961.81;;;3.66;98.94
12486;BME280;6307;46.804;11.580;2023-02-13T01:58:46;-20960.75;;;3.62;98.45
12486;BME280;6307;46.804;11.580;2023-02-13T02:01:16;-20957.44;;;3.51;97.19
12486;BME280;6307;46.804;11.580;2023-02-13T02:04:11;-20951.88;;;3.33;99.97
12486;BME280;6307;46.804;11.580;2023-02-13T02:06:50;-20946.13;;;3.14;100.00
12486;BME280;6307;46.804;11.580;2023-02-13T02:09:23;-20945.38;;;3.11;100.00
12486;BME280;6307;46.804;11.580;2023-02-13T02:12:05;-20947.34;;;3.18;100.00
12486;BME280;6307;46.804;11.580;2023-02-13T02:14:42;-20949.47;;;3.25;100.00
12486;BME280;6307;46.804;11.580;2023-02-13T02:17:09;-20945.84;;;3.13;98.25
12486;BME280;6307;46.804;11.580;2023-02-13T02:28:32;-20931.81;;;2.66;100.00
12486;BME280;6307;46.804;11.580;2023-02-13T02:47:34;-20929.25;;;2.58;100.00
12486;BME280;6307;46.804;11.580;2023-02-13T02:51:06;-20933.47;;;2.72;100.00
12486;BME280;6307;46.804;11.580;2023-02-13T02:56:53;-20930.91;;;2.63;100.00
12486;BME280;6307;46.804;11.580;2023-02-13T02:59:24;-20929.72;;;2.59;100.00
12486;BME280;6307;46.804;11.580;2023-02-13T03:02:14;-20929.56;;;2.59;100.00
12486;BME280;6307;46.804;11.580;2023-02-13T03:05:00;-20932.56;;;2.69;100.00
12486;BME280;6307;46.804;11.580;2023-02-13T03:07:46;-20926.38;;;2.48;100.00
12486;BME280;6307;46.804;11.580;2023-02-13T03:10:20;-20926.69;;;2.49;100.00
12486;BME280;6307;46.804;11.580;2023-02-13T03:13:32;-20925.19;;;2.44;100.00
12486;BME280;6307;46.804;11.580;2023-02-13T03:16:04;-20925.34;;;2.45;100.00
12486;BME280;6307;46.804;11.580;2023-02-13T03:18:51;-20931.97;;;2.67;100.00
12486;BME280;6307;46.804;11.580;2023-02-13T03:21:49;-20925.03;;;2.44;100.00
12486;BME280;6307;46.804;11.580;2023-02-13T03:25:02;-20923.81;;;2.40;100.00
12486;BME280;6307;46.804;11.580;2023-02-13T03:28:02;-20926.53;;;2.49;100.00
12486;BME280;6307;46.804;11.580;2023-02-13T03:34:05;-20933.63;;;2.72;100.00
12486;BME280;6307;46.804;11.580;2023-02-13T03:42:44;-20930.00;;;2.60;100.00
12486;BME280;6307;46.804;11.580;2023-02-13T03:45:21;-20941.00;;;2.97;100.00
12486;BME280;6307;46.804;11.580;2023-02-13T03:48:16;-20941.75;;;2.99;100.00
12486;BME280;6307;46.804;11.580;2023-02-13T03:51:09;-20932.25;;;2.68;100.00
12486;BME280;6307;46.804;11.580;2023-02-13T03:53:41;-20933.31;;;2.71;100.00
12486;BME280;6307;46.804;11.580;2023-02-13T03:56:12;-20935.88;;;2.80;100.00
12486;BME280;6307;46.804;11.580;2023-02-13T03:58:59;-20933.63;;;2.72;100.00
12486;BME280;6307;46.804;11.580;2023-02-13T04:01:52;-20927.13;;;2.51;100.00
12486;BME280;6307;46.804;11.580;2023-02-13T04:05:08;-20926.53;;;2.49;100.00
12486;BME280;6307;46.804;11.580;2023-02-13T04:07:43;-20923.22;;;2.38;100.00
12486;BME280;6307;46.804;11.580;2023-02-13T04:10:12;-20926.53;;;2.49;100.00
12486;BME280;6307;46.804;11.580;2023-02-13T04:13:02;-20921.41;;;2.32;100.00
12486;BME280;6307;46.804;11.580;2023-02-13T04:15:49;-20931.50;;;2.65;100.00
12486;BME280;6307;46.804;11.580;2023-02-13T04:18:27;-20925.19;;;2.44;100.00
12486;BME280;6307;46.804;11.580;2023-02-13T04:20:55;-20930.44;;;2.62;100.00
12486;BME280;6307;46.804;11.580;2023-02-13T04:23:25;-20933.03;;;2.70;100.00
12486;BME280;6307;46.804;11.580;2023-02-13T04:25:53;-20935.88;;;2.80;100.00
12486;BME280;6307;46.804;11.580;2023-02-13T04:28:21;-20939.50;;;2.92;100.00
12486;BME280;6307;46.804;11.580;2023-02-13T04:30:47;-20930.75;;;2.63;100.00
12486;BME280;6307;46.804;11.580;2023-02-13T04:33:14;-20931.06;;;2.64;100.00
12486;BME280;6307;46.804;11.580;2023-02-13T04:35:40;-20930.16;;;2.61;100.00
12486;BME280;6307;46.804;11.580;2023-02-13T04:38:06;-20934.22;;;2.74;100.00
12486;BME280;6307;46.804;11.580;2023-02-13T04:40:32;-20931.06;;;2.64;100.00
12486;BME280;6307;46.804;11.580;2023-02-13T04:42:59;-20933.63;;;2.72;100.00
12486;BME280;6307;46.804;11.580;2023-02-13T04:45:25;-20929.25;;;2.58;100.00
12486;BME280;6307;46.804;11.580;2023-02-13T04:47:55;-20926.38;;;2.48;100.00
12486;BME280;6307;46.804;11.580;2023-02-13T04:50:22;-20930.31;;;2.61;100.00
12486;BME280;6307;46.804;11.580;2023-02-13T04:52:53;-20929.56;;;2.59;100.00
12486;BME280;6307;46.804;11.580;2023-02-13T04:55:21;-20933.03;;;2.70;100.00
12486;BME280;6307;46.804;11.580;2023-02-13T04:57:50;-20929.25;;;2.58;100.00
12486;BME280;6307;46.804;11.580;2023-02-13T05:00:19;-20933.63;;;2.72;100.00
12486;BME280;6307;46.804;11.580;2023-02-13T05:02:46;-20931.81;;;2.66;100.00
12486;BME280;6307;46.804;11.580;2023-02-13T05:05:12;-20932.88;;;2.70;100.00
12486;BME280;6307;46.804;11.580;2023-02-13T05:07:40;-20931.97;;;2.67;100.00
12486;BME280;6307;46.804;11.580;2023-02-13T05:10:07;-20930.44;;;2.62;100.00
12486;BME280;6307;46.804;11.580;2023-02-13T05:12:34;-20930.16;;;2.61;100.00
12486;BME280;6307;46.804;11.580;2023-02-13T05:15:00;-20929.25;;;2.58;100.00
12486;BME280;6307;46.804;11.580;2023-02-13T05:17:26;-20927.44;;;2.52;100.00
12486;BME280;6307;46.804;11.580;2023-02-13T05:19:52;-20929.25;;;2.58;100.00
12486;BME280;6307;46.804;11.580;2023-02-13T05:22:19;-20929.25;;;2.58;100.00
12486;BME280;6307;46.804;11.580;2023-02-13T05:25:03;-20932.25;;;2.68;100.00
12486;BME280;6307;46.804;11.580;2023-02-13T05:27:29;-20929.25;;;2.58;100.00
12486;BME280;6307;46.804;11.580;2023-02-13T05:29:56;-20936.63;;;2.82;100.00
12486;BME280;6307;46.804;11.580;2023-02-13T05:32:22;-20933.94;;;2.73;100.00
12486;BME280;6307;46.804;11.580;2023-02-13T05:34:48;-20936.50;;;2.82;100.00
12486;BME280;6307;46.804;11.580;2023-02-13T05:37:14;-20934.22;;;2.74;100.00
12486;BME280;6307;46.804;11.580;2023-02-13T05:39:40;-20933.78;;;2.73;100.00
12486;BME280;6307;46.804;11.580;2023-02-13T05:42:06;-20926.84;;;2.50;100.00
12486;BME280;6307;46.804;11.580;2023-02-13T05:44:33;-20933.63;;;2.72;100.00
12486;BME280;6307;46.804;11.580;2023-02-13T05:46:59;-20929.25;;;2.58;100.00
12486;BME280;6307;46.804;11.580;2023-02-13T05:49:25;-20931.50;;;2.65;100.00
12486;BME280;6307;46.804;11.580;2023-02-13T05:51:51;-20926.22;;;2.48;100.00
12486;BME280;6307;46.804;11.580;2023-02-13T05:54:17;-20928.66;;;2.56;100.00
12486;BME280;6307;46.804;11.580;2023-02-13T05:56:44;-20922.91;;;2.37;100.00
12486;BME280;6307;46.804;11.580;2023-02-13T05:59:11;-20925.63;;;2.46;100.00
12486;BME280;6307;46.804;11.580;2023-02-13T06:01:37;-20927.44;;;2.52;100.00
12486;BME280;6307;46.804;11.580;2023-02-13T06:04:03;-20923.22;;;2.38;100.00
12486;BME280;6307;46.804;11.580;2023-02-13T06:06:29;-20932.41;;;2.68;100.00
12486;BME280;6307;46.804;11.580;2023-02-13T06:08:55;-20935.13;;;2.77;100.00
12486;BME280;6307;46.804;11.580;2023-02-13T06:11:22;-20940.56;;;2.95;100.00
12486;BME280;6307;46.804;11.580;2023-02-13T06:13:48;-20928.34;;;2.55;100.00
12486;BME280;6307;46.804;11.580;2023-02-13T06:16:14;-20929.72;;;2.59;100.00
12486;BME280;6307;46.804;11.580;2023-02-13T06:18:40;-20931.38;;;2.65;100.00
12486;BME280;6307;46.804;11.580;2023-02-13T06:21:07;-20938.16;;;2.87;100.00
12486;BME280;6307;46.804;11.580;2023-02-13T06:23:34;-20937.09;;;2.84;100.00
12486;BME280;6307;46.804;11.580;2023-02-13T06:26:04;-20934.81;;;2.76;100.00
12486;BME280;6307;46.804;11.580;2023-02-13T06:28:32;-20928.34;;;2.55;100.00
12486;BME280;6307;46.804;11.580;2023-02-13T06:30:58;-20926.53;;;2.49;100.00
12486;BME280;6307;46.804;11.580;2023-02-13T06:33:25;-20937.25;;;2.84;100.00
12486;BME280;6307;46.804;11.580;2023-02-13T06:35:51;-20938.44;;;2.88;100.00
12486;BME280;6307;46.804;11.580;2023-02-13T06:38:17;-20942.06;;;3.00;100.00
12486;BME280;6307;46.804;11.580;2023-02-13T06:40:47;-20941.63;;;2.99;100.00
12486;BME280;6307;46.804;11.580;2023-02-13T06:43:14;-20949.47;;;3.25;100.00
12486;BME280;6307;46.804;11.580;2023-02-13T06:45:42;-20938.31;;;2.88;100.00
12486;BME280;6307;46.804;11.580;2023-02-13T06:48:08;-20948.25;;;3.21;100.00
12486;BME280;6307;46.804;11.580;2023-02-13T06:50:34;-20948.69;;;3.22;100.00
12486;BME280;6307;46.804;11.580;2023-02-13T06:53:00;-20941.63;;;2.99;100.00
12486;BME280;6307;46.804;11.580;2023-02-13T06:55:27;-20944.94;;;3.10;100.00
12486;BME280;6307;46.804;11.580;2023-02-13T06:57:53;-20934.38;;;2.75;100.00
12486;BME280;6307;46.804;11.580;2023-02-13T07:00:19;-20937.69;;;2.86;100.00
12486;BME280;6307;46.804;11.580;2023-02-13T07:02:46;-20934.69;;;2.76;100.00
12486;BME280;6307;46.804;11.580;2023-02-13T07:05:13;-20935.59;;;2.79;100.00
12486;BME280;6307;46.804;11.580;2023-02-13T07:07:40;-20940.41;;;2.95;100.00
12486;BME280;6307;46.804;11.580;2023-02-13T07:10:11;-20945.53;;;3.12;100.00
12486;BME280;6307;46.804;11.580;2023-02-13T07:12:38;-20948.25;;;3.21;100.00
12486;BME280;6307;46.804;11.580;2023-02-13T07:15:04;-20937.09;;;2.84;100.00
12486;BME280;6307;46.804;11.580;2023-02-13T07:17:32;-20942.53;;;3.02;100.00
12486;BME280;6307;46.804;11.580;2023-02-13T07:19:58;-20958.94;;;3.56;98.06
12486;BME280;6307;46.804;11.580;2023-02-13T07:22:24;-20952.31;;;3.34;100.00
12486;BME280;6307;46.804;11.580;2023-02-13T07:24:50;-20961.06;;;3.63;97.52
12486;BME280;6307;46.804;11.580;2023-02-13T07:27:16;-20958.81;;;3.56;98.10
12486;BME280;6307;46.804;11.580;2023-02-13T07:29:42;-20960.16;;;3.60;98.34
12486;BME280;6307;46.804;11.580;2023-02-13T07:32:08;-20957.16;;;3.50;100.00
12486;BME280;6307;46.804;11.580;2023-02-13T07:34:35;-20963.47;;;3.71;97.75
12486;BME280;6307;46.804;11.580;2023-02-13T07:37:01;-20954.13;;;3.40;100.00
12486;BME280;6307;46.804;11.580;2023-02-13T07:39:27;-20955.47;;;3.45;100.00
12486;BME280;6307;46.804;11.580;2023-02-13T07:41:53;-20950.22;;;3.27;100.00
12486;BME280;6307;46.804;11.580;2023-02-13T07:44:19;-20953.22;;;3.37;100.00
12486;BME280;6307;46.804;11.580;2023-02-13T07:46:45;-20950.22;;;3.27;100.00
12486;BME280;6307;46.804;11.580;2023-02-13T07:49:11;-20955.19;;;3.44;100.00
12486;BME280;6307;46.804;11.580;2023-02-13T07:51:37;-20952.03;;;3.33;100.00
12486;BME280;6307;46.804;11.580;2023-02-13T07:54:03;-20959.09;;;3.57;99.11
12486;BME280;6307;46.804;11.580;2023-02-13T07:56:29;-20956.25;;;3.47;100.00
12486;BME280;6307;46.804;11.580;2023-02-13T07:58:56;-20957.75;;;3.52;99.90
12486;BME280;6307;46.804;11.580;2023-02-13T08:01:22;-20956.09;;;3.47;100.00
12486;BME280;6307;46.804;11.580;2023-02-13T08:03:49;-20957.28;;;3.51;100.00
12486;BME280;6307;46.804;11.580;2023-02-13T08:06:16;-20957.91;;;3.53;99.89
12486;BME280;6307;46.804;11.580;2023-02-13T08:08:44;-20971.16;;;3.97;95.23
12486;BME280;6307;46.804;11.580;2023-02-13T08:11:23;-20974.78;;;4.09;91.94
12486;BME280;6307;46.804;11.580;2023-02-13T08:14:11;-20979.00;;;4.23;89.98
12486;BME280;6307;46.804;11.580;2023-02-13T08:16:37;-20978.38;;;4.21;92.01
12486;BME280;6307;46.804;11.580;2023-02-13T08:19:03;-20976.72;;;4.15;92.67
12486;BME280;6307;46.804;11.580;2023-02-13T08:21:29;-20971.91;;;3.99;93.66
12486;BME280;6307;46.804;11.580;2023-02-13T08:23:56;-20971.47;;;3.98;94.64
12486;BME280;6307;46.804;11.580;2023-02-13T08:26:23;-20979.75;;;4.25;91.04
12486;BME280;6307;46.804;11.580;2023-02-13T08:28:49;-20987.28;;;4.50;88.28
12486;BME280;6307;46.804;11.580;2023-02-13T08:31:15;-20987.13;;;4.50;89.67
12486;BME280;6307;46.804;11.580;2023-02-13T08:33:41;-20981.69;;;4.32;90.67
12486;BME280;6307;46.804;11.580;2023-02-13T08:36:07;-20992.84;;;4.69;87.66
12486;BME280;6307;46.804;11.580;2023-02-13T08:38:33;-21002.19;;;5.00;82.65
12486;BME280;6307;46.804;11.580;2023-02-13T08:40:59;-21005.66;;;5.11;81.75
12486;BME280;6307;46.804;11.580;2023-02-13T08:43:26;-21007.16;;;5.16;80.78
12486;BME280;6307;46.804;11.580;2023-02-13T08:45:52;-20997.50;;;4.84;84.56
12486;BME280;6307;46.804;11.580;2023-02-13T08:48:18;-21008.81;;;5.22;80.90
12486;BME280;6307;46.804;11.580;2023-02-13T08:50:44;-21015.72;;;5.45;78.18
12486;BME280;6307;46.804;11.580;2023-02-13T08:53:10;-21024.91;;;5.75;73.36
12486;BME280;6307;46.804;11.580;2023-02-13T08:55:36;-21022.19;;;5.66;74.49
12486;BME280;6307;46.804;11.580;2023-02-13T08:58:03;-21017.69;;;5.51;78.40
12486;BME280;6307;46.804;11.580;2023-02-13T09:00:30;-21019.81;;;5.58;79.24
12486;BME280;6307;46.804;11.580;2023-02-13T09:03:00;-21015.59;;;5.44;79.55
12486;BME280;6307;46.804;11.580;2023-02-13T09:05:34;-21017.69;;;5.51;78.81
12486;BME280;6307;46.804;11.580;2023-02-13T09:08:01;-21018.00;;;5.52;79.30
12486;BME280;6307;46.804;11.580;2023-02-13T09:10:29;-21017.53;;;5.51;79.47
12486;BME280;6307;46.804;11.580;2023-02-13T09:12:56;-21016.78;;;5.48;81.20
12486;BME280;6307;46.804;11.580;2023-02-13T09:15:22;-21016.94;;;5.49;80.38
12486;BME280;6307;46.804;11.580;2023-02-13T09:17:48;-21021.16;;;5.63;77.80
12486;BME280;6307;46.804;11.580;2023-02-13T09:20:14;-21025.38;;;5.77;79.30
12486;BME280;6307;46.804;11.580;2023-02-13T09:22:41;-21019.19;;;5.56;78.64
12486;BME280;6307;46.804;11.580;2023-02-13T09:25:07;-21029.44;;;5.90;79.86
12486;BME280;6307;46.804;11.580;2023-02-13T09:27:34;-21034.09;;;6.06;79.34
12486;BME280;6307;46.804;11.580;2023-02-13T09:30:07;-21030.78;;;5.95;74.02
12486;BME280;6307;46.804;11.580;2023-02-13T09:32:35;-21040.88;;;6.28;74.55
12486;BME280;6307;46.804;11.580;2023-02-13T09:35:04;-21041.91;;;6.32;75.30
12486;BME280;6307;46.804;11.580;2023-02-13T09:37:31;-21035.91;;;6.12;71.12
12486;BME280;6307;46.804;11.580;2023-02-13T09:39:57;-21037.25;;;6.16;71.55
12486;BME280;6307;46.804;11.580;2023-02-13T09:42:26;-21046.13;;;6.46;70.06
12486;BME280;6307;46.804;11.580;2023-02-13T09:44:58;-21051.09;;;6.62;70.03
12486;BME280;6307;46.804;11.580;2023-02-13T09:47:40;-21049.00;;;6.55;67.89
12486;BME280;6307;46.804;11.580;2023-02-13T09:50:21;-21050.19;;;6.59;66.83
12486;BME280;6307;46.804;11.580;2023-02-13T09:52:50;-21056.34;;;6.80;67.84
12486;BME280;6307;46.804;11.580;2023-02-13T09:55:46;-21060.88;;;6.95;69.19
12486;BME280;6307;46.804;11.580;2023-02-13T09:58:32;-21055.59;;;6.77;65.67
12486;BME280;6307;46.804;11.580;2023-02-13T10:01:05;-21059.97;;;6.92;68.86
12486;BME280;6307;46.804;11.580;2023-02-13T10:03:47;-21067.78;;;7.18;63.34
12486;BME280;6307;46.804;11.580;2023-02-13T10:17:26;-21075.00;;;7.41;62.46
12486;BME280;6307;46.804;11.580;2023-02-13T10:20:07;-21073.66;;;7.37;61.23
12486;BME280;6307;46.804;11.580;2023-02-13T10:22:47;-21073.19;;;7.35;60.56
12486;BME280;6307;46.804;11.580;2023-02-13T10:25:24;-21077.84;;;7.51;61.54
12486;BME280;6307;46.804;11.580;2023-02-13T10:28:04;-21078.31;;;7.52;62.99
12486;BME280;6307;46.804;11.580;2023-02-13T10:30:51;-21081.16;;;7.62;62.86
12486;BME280;6307;46.804;11.580;2023-02-13T10:33:49;-21078.91;;;7.54;60.30
12486;BME280;6307;46.804;11.580;2023-02-13T10:36:22;-21078.31;;;7.52;60.03
12486;BME280;6307;46.804;11.580;2023-02-13T10:39:21;-21083.41;;;7.69;58.92
12486;BME280;6307;46.804;11.580;2023-02-13T10:41:54;-21085.22;;;7.75;60.21
12486;BME280;6307;46.804;11.580;2023-02-13T10:44:54;-21084.78;;;7.74;57.95
12486;BME280;6307;46.804;11.580;2023-02-13T10:56:14;-21087.78;;;7.84;63.00
12486;BME280;6307;46.804;11.580;2023-02-13T11:01:50;-21090.63;;;7.93;61.94
12486;BME280;6307;46.804;11.580;2023-02-13T11:04:22;-21096.03;;;8.11;58.49
12486;BME280;6307;46.804;11.580;2023-02-13T11:06:57;-21100.84;;;8.27;58.89
12486;BME280;6307;46.804;11.580;2023-02-13T11:09:26;-21101.00;;;8.28;59.44
12486;BME280;6307;46.804;11.580;2023-02-13T11:11:54;-21099.50;;;8.23;59.11
12486;BME280;6307;46.804;11.580;2023-02-13T11:14:25;-21102.66;;;8.33;57.89
12486;BME280;6307;46.804;11.580;2023-02-13T11:17:02;-21105.06;;;8.41;56.12
12486;BME280;6307;46.804;11.580;2023-02-13T11:22:10;-21114.66;;;8.73;54.00
12486;BME280;6307;46.804;11.580;2023-02-13T11:24:52;-21113.75;;;8.70;53.24
12486;BME280;6307;46.804;11.580;2023-02-13T11:27:29;-21119.03;;;8.88;52.61
12486;BME280;6307;46.804;11.580;2023-02-13T11:30:01;-21119.78;;;8.90;54.77
12486;BME280;6307;46.804;11.580;2023-02-13T11:32:32;-21122.31;;;8.99;55.79
12486;BME280;6307;46.804;11.580;2023-02-13T11:35:24;-21123.97;;;9.04;55.48
12486;BME280;6307;46.804;11.580;2023-02-13T11:38:19;-21119.03;;;8.88;54.43
12486;BME280;6307;46.804;11.580;2023-02-13T11:40:51;-21125.63;;;9.10;53.49
12486;BME280;6307;46.804;11.580;2023-02-13T11:43:29;-21129.97;;;9.24;52.36
12486;BME280;6307;46.804;11.580;2023-02-13T11:46:17;-21131.63;;;9.30;52.89
12486;BME280;6307;46.804;11.580;2023-02-13T11:49:00;-21132.84;;;9.34;52.38
12486;BME280;6307;46.804;11.580;2023-02-13T11:51:50;-21133.44;;;9.36;53.33
12486;BME280;6307;46.804;11.580;2023-02-13T11:56:58;-21133.44;;;9.36;51.63
12486;BME280;6307;46.804;11.580;2023-02-13T11:59:31;-21135.69;;;9.43;51.41
12486;BME280;6307;46.804;11.580;2023-02-13T12:02:28;-21138.97;;;9.54;50.89
12486;BME280;6307;46.804;11.580;2023-02-13T12:05:20;-21139.59;;;9.56;50.30
12486;BME280;6307;46.804;11.580;2023-02-13T12:07:48;-21142.13;;;9.65;50.41
12486;BME280;6307;46.804;11.580;2023-02-13T12:10:20;-21142.75;;;9.67;51.00
12486;BME280;6307;46.804;11.580;2023-02-13T12:15:27;-21145.28;;;9.75;49.94
12486;BME280;6307;46.804;11.580;2023-02-13T12:21:08;-21150.69;;;9.93;49.45
12486;BME280;6307;46.804;11.580;2023-02-13T12:24:00;-21150.38;;;9.92;49.82
12486;BME280;6307;46.804;11.580;2023-02-13T12:26:39;-21150.84;;;9.94;49.28
12486;BME280;6307;46.804;11.580;2023-02-13T12:38:41;-21159.41;;;10.22;49.35
12486;BME280;6307;46.804;11.580;2023-02-13T12:41:20;-21160.00;;;10.24;48.72
12486;BME280;6307;46.804;11.580;2023-02-13T12:47:14;-21161.78;;;10.30;48.38
12486;BME280;6307;46.804;11.580;2023-02-13T12:50:23;-21167.66;;;10.50;47.44
12486;BME280;6307;46.804;11.580;2023-02-13T12:55:47;-21162.53;;;10.33;49.29
12486;BME280;6307;46.804;11.580;2023-02-13T13:01:53;-21160.91;;;10.27;48.68
12486;BME280;6307;46.804;11.580;2023-02-13T13:12:38;-21170.94;;;10.61;48.73
12486;BME280;6307;46.804;11.580;2023-02-13T13:26:59;-21178.59;;;10.86;46.68
12486;BME280;6307;46.804;11.580;2023-02-13T13:29:41;-21179.63;;;10.90;46.20
12486;BME280;6307;46.804;11.580;2023-02-13T13:32:16;-21178.44;;;10.86;46.34
12486;BME280;6307;46.804;11.580;2023-02-13T13:34:45;-21181.28;;;10.95;45.99
12486;BME280;6307;46.804;11.580;2023-02-13T13:37:22;-21177.09;;;10.81;46.83
12486;BME280;6307;46.804;11.580;2023-02-13T13:42:54;-21180.09;;;10.91;46.37
12486;BME280;6307;46.804;11.580;2023-02-13T13:49:04;-21162.84;;;10.34;50.22
12486;BME280;6307;46.804;11.580;2023-02-13T13:51:50;-21165.09;;;10.41;50.15
12486;BME280;6307;46.804;11.580;2023-02-13T13:54:18;-21164.03;;;10.38;50.28
12486;BME280;6307;46.804;11.580;2023-02-13T13:59:53;-21164.03;;;10.38;49.43
12486;BME280;6307;46.804;11.580;2023-02-13T14:07:37;-21163.16;;;10.35;50.14
12486;BME280;6307;46.804;11.580;2023-02-13T14:20:51;-21150.38;;;9.92;53.12
12486;BME280;6307;46.804;11.580;2023-02-13T14:28:55;-21144.09;;;9.71;54.28
12486;BME280;6307;46.804;11.580;2023-02-13T14:31:36;-21141.84;;;9.64;54.46
12486;BME280;6307;46.804;11.580;2023-02-13T14:34:18;-21138.97;;;9.54;55.04
12486;BME280;6307;46.804;11.580;2023-02-13T14:40:48;-21149.34;;;9.89;54.88
12486;BME280;6307;46.804;11.580;2023-02-13T14:45:51;-21140.78;;;9.60;55.87
12486;BME280;6307;46.804;11.580;2023-02-13T14:48:31;-21138.38;;;9.52;55.15
12486;BME280;6307;46.804;11.580;2023-02-13T14:51:02;-21131.94;;;9.31;57.65
12486;BME280;6307;46.804;11.580;2023-02-13T14:53:34;-21128.78;;;9.20;58.81
12486;BME280;6307;46.804;11.580;2023-02-13T14:56:13;-21126.53;;;9.13;59.10
12486;BME280;6307;46.804;11.580;2023-02-13T14:58:53;-21123.38;;;9.02;58.95
12486;BME280;6307;46.804;11.580;2023-02-13T15:01:31;-21120.81;;;8.94;59.98
12486;BME280;6307;46.804;11.580;2023-02-13T15:06:47;-21118.28;;;8.85;59.78
12486;BME280;6307;46.804;11.580;2023-02-13T15:11:48;-21118.13;;;8.85;60.64
12486;BME280;6307;46.804;11.580;2023-02-13T15:16:56;-21110.00;;;8.58;61.98
12486;BME280;6307;46.804;11.580;2023-02-13T15:19:34;-21111.06;;;8.61;62.43
12486;BME280;6307;46.804;11.580;2023-02-13T15:22:04;-21109.72;;;8.57;62.63
12486;BME280;6307;46.804;11.580;2023-02-13T15:24:44;-21112.28;;;8.65;62.22
12486;BME280;6307;46.804;11.580;2023-02-13T15:27:23;-21120.81;;;8.94;58.14
12486;BME280;6307;46.804;11.580;2023-02-13T15:30:01;-21120.97;;;8.94;58.35
12486;BME280;6307;46.804;11.580;2023-02-13T15:32:40;-21117.69;;;8.83;59.52
12486;BME280;6307;46.804;11.580;2023-02-13T15:35:21;-21113.47;;;8.69;59.44
12486;BME280;6307;46.804;11.580;2023-02-13T15:37:56;-21109.09;;;8.55;61.91
12486;BME280;6307;46.804;11.580;2023-02-13T15:40:24;-21103.41;;;8.36;63.92
12486;BME280;6307;46.804;11.580;2023-02-13T15:42:52;-21103.41;;;8.36;64.35
12486;BME280;6307;46.804;11.580;2023-02-13T15:45:21;-21104.91;;;8.41;62.53
12486;BME280;6307;46.804;11.580;2023-02-13T15:47:49;-21103.56;;;8.36;64.43
12486;BME280;6307;46.804;11.580;2023-02-13T15:50:30;-21099.78;;;8.24;63.95
12486;BME280;6307;46.804;11.580;2023-02-13T15:53:02;-21106.56;;;8.46;58.99
12486;BME280;6307;46.804;11.580;2023-02-13T15:55:34;-21104.00;;;8.38;63.01
12486;BME280;6307;46.804;11.580;2023-02-13T15:58:01;-21103.09;;;8.35;62.97
12486;BME280;6307;46.804;11.580;2023-02-13T16:00:31;-21095.13;;;8.08;63.90